Time;durP1;ratioP1;P1;durP2;ratioP2;P2;SDS_P1;SDS_P2;PMS_P1;PMS_P2;Temp;Humidity;BMP_temperature;BMP_pressure;BME280_temperature;BME280_humidity;BME280_pressure;Samples;Min_cycle;Max_cycle;Signal;HPM_P1;HPM_P2
2023/05/14 00:01:56;;;;;;;19.83;8.77;;;11.80;99.90;;;;;;5110920;27;20420;-82
2023/05/14 00:04:22;;;;;;;19.20;8.50;;;11.70;99.90;;;;;;5105508;27;20043;-82
2023/05/14 00:06:48;;;;;;;15.30;8.18;;;11.70;99.90;;;;;;5112496;27;20868;-82
2023/05/14 00:09:13;;;;;;;16.40;8.25;;;11.60;99.90;;;;;;5130284;27;20103;-82
2023/05/14 00:11:39;;;;;;;12.10;7.90;;;11.70;99.90;;;;;;5110841;27;20031;-82
2023/05/14 00:14:05;;;;;;;14.73;8.40;;;11.80;99.90;;;;;;5109644;28;20047;-82
2023/05/14 00:16:30;;;;;;;14.55;8.20;;;11.70;99.90;;;;;;5092753;27;20123;-81
2023/05/14 00:18:56;;;;;;;11.13;7.47;;;11.70;99.90;;;;;;5084876;27;20035;-81
2023/05/14 00:21:23;;;;;;;17.52;8.23;;;12.00;99.90;;;;;;5109928;28;20046;-82
2023/05/14 00:23:48;;;;;;;17.67;7.82;;;11.70;99.90;;;;;;5109988;28;20031;-84
2023/05/14 00:26:14;;;;;;;12.13;7.80;;;11.60;99.90;;;;;;5118533;28;20035;-83
2023/05/14 00:28:40;;;;;;;15.15;7.80;;;11.70;99.90;;;;;;5128473;27;20102;-82
2023/05/14 00:31:05;;;;;;;18.98;7.70;;;11.70;99.90;;;;;;5109374;27;20086;-82
2023/05/14 00:33:31;;;;;;;14.50;7.75;;;11.60;99.90;;;;;;5144005;27;20525;-84
2023/05/14 00:36:07;;;;;;;15.70;7.40;;;11.60;99.90;;;;;;5113633;28;20093;-83
2023/05/14 00:38:33;;;;;;;13.60;7.00;;;11.50;99.90;;;;;;5107755;28;20058;-83
2023/05/14 00:41:02;;;;;;;14.18;8.20;;;11.50;99.90;;;;;;5109296;28;20070;-83
2023/05/14 00:43:32;;;;;;;13.65;7.30;;;11.50;99.90;;;;;;5092777;28;20085;-83
2023/05/14 00:46:01;;;;;;;14.43;7.40;;;11.50;99.90;;;;;;5091390;28;20039;-82
2023/05/14 00:48:26;;;;;;;12.88;7.10;;;11.50;99.90;;;;;;5093932;28;20043;-82
2023/05/14 00:50:52;;;;;;;14.75;7.57;;;11.50;99.90;;;;;;5093751;28;20099;-83
2023/05/14 00:53:19;;;;;;;13.32;6.68;;;11.50;99.90;;;;;;5111559;28;20076;-84
2023/05/14 00:55:47;;;;;;;13.30;7.07;;;11.50;99.90;;;;;;5110371;28;20079;-81
2023/05/14 00:58:13;;;;;;;13.35;6.80;;;11.50;99.90;;;;;;5088146;28;20062;-82
2023/05/14 01:00:40;;;;;;;13.40;6.30;;;11.50;99.90;;;;;;5129074;28;20503;-82
2023/05/14 01:03:07;;;;;;;13.98;7.35;;;11.50;99.90;;;;;;5115790;28;20050;-81
2023/05/14 01:05:49;;;;;;;15.35;6.55;;;11.80;99.90;;;;;;5116430;28;20074;-81
2023/05/14 01:08:39;;;;;;;14.40;6.00;;;11.00;99.90;;;;;;5135494;28;20030;-83
2023/05/14 01:11:17;;;;;;;16.05;6.20;;;11.50;99.90;;;;;;5101190;28;20019;-83
2023/05/14 01:14:01;;;;;;;13.20;6.28;;;11.50;99.90;;;;;;5127575;28;20035;-82
2023/05/14 01:16:32;;;;;;;11.45;6.20;;;11.40;99.90;;;;;;5138695;28;20047;-83
2023/05/14 01:19:46;;;;;;;17.73;6.55;;;11.40;99.90;;;;;;5117694;28;20203;-82
2023/05/14 01:22:12;;;;;;;9.98;5.72;;;11.40;99.90;;;;;;5118224;28;20047;-83
2023/05/14 01:24:38;;;;;;;20.15;6.88;;;11.50;99.90;;;;;;5097141;28;20084;-82
2023/05/14 01:27:22;;;;;;;13.05;6.50;;;11.40;99.90;;;;;;5139894;27;20064;-84
2023/05/14 01:30:08;;;;;;;15.95;6.18;;;11.40;99.90;;;;;;5141562;27;20019;-84
2023/05/14 01:32:35;;;;;;;11.90;6.45;;;11.40;99.90;;;;;;5107054;28;20054;-84
2023/05/14 01:35:03;;;;;;;12.82;6.35;;;11.40;99.90;;;;;;5093272;28;20463;-83
2023/05/14 01:37:30;;;;;;;13.25;6.90;;;11.30;99.90;;;;;;5109935;28;20054;-83
2023/05/14 01:39:56;;;;;;;17.05;7.13;;;11.30;99.90;;;;;;5127850;28;20046;-83
2023/05/14 01:42:22;;;;;;;13.50;7.40;;;11.30;99.90;;;;;;5091170;28;20055;-82
2023/05/14 01:44:48;;;;;;;12.85;6.70;;;11.80;99.90;;;;;;5093015;28;20109;-83
2023/05/14 01:47:14;;;;;;;13.07;7.60;;;11.30;99.90;;;;;;5105456;27;20061;-83
2023/05/14 01:49:40;;;;;;;18.77;8.93;;;11.30;99.90;;;;;;5096583;27;20043;-84
2023/05/14 01:52:07;;;;;;;16.67;8.60;;;11.40;99.90;;;;;;5097239;27;20116;-82
2023/05/14 01:54:33;;;;;;;12.55;7.22;;;11.30;99.90;;;;;;5131751;27;20407;-82
2023/05/14 01:56:58;;;;;;;14.38;7.45;;;11.20;99.90;;;;;;5095695;27;20047;-84
2023/05/14 01:59:24;;;;;;;14.30;7.85;;;11.10;99.90;;;;;;5096377;28;20423;-82
2023/05/14 02:01:50;;;;;;;14.32;6.78;;;11.10;99.90;;;;;;5093191;28;20400;-84
2023/05/14 02:04:15;;;;;;;15.52;7.22;;;11.10;99.90;;;;;;5127929;27;20082;-82
2023/05/14 02:06:41;;;;;;;15.07;7.75;;;11.10;99.90;;;;;;5096783;27;20541;-83
2023/05/14 02:09:07;;;;;;;14.68;7.47;;;11.10;99.90;;;;;;5114310;27;20062;-82
2023/05/14 02:11:33;;;;;;;15.43;7.82;;;11.10;99.90;;;;;;5130109;27;20130;-83
2023/05/14 02:13:58;;;;;;;16.88;7.68;;;11.10;99.90;;;;;;5131993;27;20039;-83
2023/05/14 02:16:24;;;;;;;13.40;8.07;;;11.10;99.90;;;;;;5111348;27;20588;-82
2023/05/14 02:18:50;;;;;;;16.80;7.75;;;11.00;99.90;;;;;;5112826;27;20051;-82
2023/05/14 02:21:15;;;;;;;13.60;7.32;;;11.20;99.90;;;;;;5095490;27;20039;-83
2023/05/14 02:23:41;;;;;;;15.40;7.80;;;11.00;99.90;;;;;;5118607;27;20043;-84
2023/05/14 02:26:09;;;;;;;17.13;8.20;;;11.10;99.90;;;;;;5095355;28;20487;-83
2023/05/14 02:28:35;;;;;;;14.63;7.15;;;11.00;99.90;;;;;;5093721;27;20043;-82
2023/05/14 02:31:06;;;;;;;15.10;7.55;;;10.80;99.90;;;;;;5095928;27;20054;-83
2023/05/14 02:33:32;;;;;;;14.50;8.70;;;11.00;99.90;;;;;;5113203;27;20082;-84
2023/05/14 02:35:58;;;;;;;15.07;8.35;;;11.00;99.90;;;;;;5129238;27;20135;-83
2023/05/14 02:38:24;;;;;;;15.90;7.40;;;10.90;99.90;;;;;;5111501;27;20502;-83
2023/05/14 02:40:50;;;;;;;18.17;8.68;;;11.00;99.90;;;;;;5129926;27;20049;-82
2023/05/14 02:43:16;;;;;;;17.83;7.75;;;11.00;99.90;;;;;;5094890;27;20134;-83
2023/05/14 02:45:41;;;;;;;15.32;8.00;;;11.10;99.90;;;;;;5111707;27;20038;-83
2023/05/14 02:48:07;;;;;;;18.17;7.90;;;10.90;99.90;;;;;;5094753;27;20050;-83
2023/05/14 02:50:33;;;;;;;14.85;7.63;;;10.90;99.90;;;;;;5094775;27;20384;-83
2023/05/14 02:52:58;;;;;;;14.15;7.20;;;10.90;99.90;;;;;;5110948;27;20046;-84
2023/05/14 02:55:25;;;;;;;16.42;7.40;;;10.90;99.90;;;;;;5094343;27;20073;-83
2023/05/14 02:57:52;;;;;;;14.73;7.10;;;10.90;99.90;;;;;;5111760;27;20051;-83
2023/05/14 03:00:18;;;;;;;14.48;7.38;;;10.90;99.90;;;;;;5094721;27;20047;-83
2023/05/14 03:02:44;;;;;;;18.20;8.38;;;10.90;99.90;;;;;;5111637;27;20079;-83
2023/05/14 03:05:10;;;;;;;19.35;9.18;;;10.90;99.90;;;;;;5111702;27;20488;-81
2023/05/14 03:07:35;;;;;;;21.48;9.30;;;10.90;99.90;;;;;;5110238;27;20071;-83
2023/05/14 03:10:01;;;;;;;25.92;10.38;;;10.90;99.90;;;;;;5111507;27;20055;-83
2023/05/14 03:12:27;;;;;;;14.98;8.65;;;10.90;99.90;;;;;;5111824;27;20200;-83
2023/05/14 03:14:53;;;;;;;17.45;9.30;;;10.90;99.90;;;;;;5126522;27;20474;-83
2023/05/14 03:17:18;;;;;;;19.25;9.23;;;11.10;99.90;;;;;;5081229;27;20031;-81
2023/05/14 03:19:44;;;;;;;19.30;8.30;;;10.90;99.90;;;;;;5093730;27;20035;-83
2023/05/14 03:22:10;;;;;;;17.40;8.43;;;10.90;99.90;;;;;;5116494;27;20042;-83
2023/05/14 03:24:38;;;;;;;15.23;8.00;;;10.90;99.90;;;;;;5112158;27;20120;-84
2023/05/14 03:27:04;;;;;;;21.13;9.05;;;11.20;99.90;;;;;;5093997;27;20039;-83
2023/05/14 03:29:30;;;;;;;21.70;8.45;;;11.00;99.90;;;;;;5112164;27;20115;-83
2023/05/14 03:31:56;;;;;;;18.00;8.65;;;10.90;99.90;;;;;;5112775;27;20058;-84
2023/05/14 03:34:21;;;;;;;16.45;9.95;;;10.90;99.90;;;;;;5130845;27;20047;-83
2023/05/14 03:36:47;;;;;;;21.77;10.13;;;11.40;99.90;;;;;;5094768;27;20063;-82
2023/05/14 03:39:19;;;;;;;22.88;10.82;;;10.90;99.90;;;;;;5111353;27;20039;-83
2023/05/14 03:41:46;;;;;;;18.75;9.65;;;11.30;99.90;;;;;;5132991;27;20054;-82
2023/05/14 03:44:12;;;;;;;16.40;9.18;;;11.00;99.90;;;;;;5120016;27;20649;-83
2023/05/14 03:46:38;;;;;;;18.42;8.88;;;10.80;99.90;;;;;;5111217;27;20054;-81
2023/05/14 03:49:07;;;;;;;19.75;8.77;;;11.50;99.90;;;;;;5130000;27;20043;-82
2023/05/14 03:51:36;;;;;;;17.35;8.43;;;11.60;99.90;;;;;;5110905;27;20514;-82
2023/05/14 03:54:05;;;;;;;19.27;8.73;;;10.90;99.90;;;;;;5094840;27;20047;-84
2023/05/14 03:56:31;;;;;;;20.70;8.68;;;10.80;99.90;;;;;;5110648;27;20050;-84
2023/05/14 03:58:57;;;;;;;20.85;9.02;;;10.80;99.90;;;;;;5110448;27;20043;-84
2023/05/14 04:01:22;;;;;;;20.33;8.82;;;10.80;99.90;;;;;;5093081;27;20055;-83
2023/05/14 04:03:48;;;;;;;17.85;8.63;;;10.80;99.90;;;;;;5107150;27;20057;-83
2023/05/14 04:06:14;;;;;;;19.38;9.02;;;11.00;99.90;;;;;;5106650;27;20122;-83
2023/05/14 04:08:39;;;;;;;16.95;8.52;;;11.30;99.90;;;;;;5110130;27;20049;-83
2023/05/14 04:11:05;;;;;;;18.80;8.80;;;10.80;99.90;;;;;;5092853;27;20050;-82
2023/05/14 04:13:31;;;;;;;19.15;8.57;;;10.80;99.90;;;;;;5128685;27;20104;-82
2023/05/14 04:15:56;;;;;;;24.17;8.05;;;10.70;99.90;;;;;;5109780;27;20053;-83
2023/05/14 04:18:22;;;;;;;17.83;7.20;;;10.70;99.90;;;;;;5108014;27;20042;-82
2023/05/14 04:20:48;;;;;;;14.68;7.18;;;11.10;99.90;;;;;;5109219;27;20043;-84
2023/05/14 04:23:14;;;;;;;20.98;7.63;;;10.70;99.90;;;;;;5128215;27;20049;-83
2023/05/14 04:25:39;;;;;;;18.58;7.55;;;10.70;99.90;;;;;;5126910;27;20035;-84
2023/05/14 04:28:08;;;;;;;18.88;8.10;;;10.80;99.90;;;;;;5109813;28;20070;-83
2023/05/14 04:30:34;;;;;;;17.55;7.57;;;10.70;99.90;;;;;;5092452;28;20680;-83
2023/05/14 04:33:01;;;;;;;23.45;8.15;;;10.70;99.90;;;;;;5105570;27;20042;-83
2023/05/14 04:35:29;;;;;;;18.40;7.30;;;10.70;99.90;;;;;;5134110;27;20047;-82
2023/05/14 04:38:20;;;;;;;;;;;;;;;;;;;;;
2023/05/14 04:48:23;;;;;;;17.35;7.00;;;10.70;99.90;;;;;;5081910;28;20042;-83
2023/05/14 04:54:27;;;;;;;18.27;8.43;;;10.20;99.90;;;;;;5055924;28;20099;-83
2023/05/14 04:56:54;;;;;;;19.13;8.55;;;10.90;99.90;;;;;;5119253;28;20411;-83
2023/05/14 04:59:20;;;;;;;26.25;8.30;;;10.90;99.90;;;;;;5109502;28;20067;-81
2023/05/14 05:01:46;;;;;;;24.83;8.05;;;11.10;99.90;;;;;;5108421;28;20443;-85
2023/05/14 05:04:12;;;;;;;18.10;7.45;;;10.90;99.90;;;;;;5091273;28;20046;-84
2023/05/14 05:06:38;;;;;;;21.27;8.75;;;11.30;99.90;;;;;;5090499;28;20039;-82
2023/05/14 05:09:03;;;;;;;24.35;9.05;;;11.30;99.90;;;;;;5092353;28;20074;-83
2023/05/14 05:11:29;;;;;;;23.17;9.05;;;11.10;99.90;;;;;;5096038;28;20551;-83
2023/05/14 05:13:55;;;;;;;19.20;8.32;;;11.10;99.90;;;;;;5121216;28;20744;-84
2023/05/14 05:16:20;;;;;;;20.95;8.60;;;11.10;99.90;;;;;;5126826;27;20508;-85
2023/05/14 05:18:46;;;;;;;24.80;8.23;;;11.20;99.90;;;;;;5131029;27;20039;-84
2023/05/14 05:21:12;;;;;;;24.30;8.82;;;11.20;99.90;;;;;;5095690;27;20050;-84
2023/05/14 05:23:37;;;;;;;28.58;8.18;;;11.30;99.90;;;;;;5113448;27;20031;-85
2023/05/14 05:26:03;;;;;;;25.48;8.85;;;11.30;99.90;;;;;;5113557;27;20087;-83
2023/05/14 05:28:29;;;;;;;21.90;7.72;;;11.30;99.90;;;;;;5131906;27;20043;-83
2023/05/14 05:30:55;;;;;;;20.23;6.80;;;11.30;99.90;;;;;;5114053;27;20620;-83
2023/05/14 05:33:21;;;;;;;20.95;7.50;;;11.40;99.90;;;;;;5094112;27;20078;-83
2023/05/14 05:35:48;;;;;;;22.77;8.98;;;11.40;99.90;;;;;;5126422;27;20090;-82
2023/05/14 05:38:17;;;;;;;22.75;8.18;;;12.20;99.90;;;;;;5097042;27;20051;-84
2023/05/14 05:40:42;;;;;;;22.52;8.35;;;11.50;99.90;;;;;;5086826;27;20205;-84
2023/05/14 05:43:08;;;;;;;24.60;9.63;;;11.50;99.90;;;;;;5082519;27;20117;-86
2023/05/14 05:45:34;;;;;;;24.05;9.10;;;11.50;99.90;;;;;;5097926;27;20088;-84
2023/05/14 05:48:03;;;;;;;22.27;8.45;;;11.50;99.90;;;;;;5080883;27;20055;-82
2023/05/14 05:50:30;;;;;;;23.83;9.20;;;11.60;99.90;;;;;;5098204;27;20051;-83
2023/05/14 05:52:58;;;;;;;24.38;8.68;;;11.80;99.90;;;;;;5085273;27;20062;-83
2023/05/14 05:55:24;;;;;;;22.30;8.18;;;11.70;99.90;;;;;;5098594;27;20168;-83
2023/05/14 05:57:50;;;;;;;22.40;8.27;;;11.70;99.90;;;;;;5107791;27;20042;-83
2023/05/14 06:00:16;;;;;;;21.00;7.00;;;11.70;99.90;;;;;;5093713;27;20050;-85
2023/05/14 06:02:42;;;;;;;21.40;8.02;;;11.70;99.90;;;;;;5115905;27;20027;-85
2023/05/14 06:05:09;;;;;;;21.52;7.70;;;11.80;99.90;;;;;;5146128;27;20084;-84
2023/05/14 06:07:38;;;;;;;22.10;8.82;;;11.90;99.90;;;;;;5124884;27;20856;-83
2023/05/14 06:10:07;;;;;;;18.83;7.43;;;11.90;99.90;;;;;;5082274;27;20039;-83
2023/05/14 06:12:33;;;;;;;21.88;6.93;;;12.00;99.90;;;;;;5103371;27;20043;-83
2023/05/14 06:14:59;;;;;;;17.27;6.63;;;12.00;99.90;;;;;;5082100;27;20043;-83
2023/05/14 06:17:24;;;;;;;24.15;8.55;;;12.10;99.90;;;;;;5116557;27;20269;-85
2023/05/14 06:19:51;;;;;;;18.60;7.30;;;12.20;99.90;;;;;;5097840;27;20491;-85
2023/05/14 06:22:17;;;;;;;21.92;8.10;;;12.20;99.90;;;;;;5092264;27;20050;-82
2023/05/14 06:24:43;;;;;;;19.88;6.75;;;12.30;99.90;;;;;;5097306;27;20055;-82
2023/05/14 06:27:10;;;;;;;26.50;6.05;;;12.40;99.90;;;;;;5110923;27;20403;-83
2023/05/14 06:29:36;;;;;;;18.75;6.28;;;12.30;99.90;;;;;;5108797;27;20044;-84
2023/05/14 06:32:03;;;;;;;18.80;6.85;;;12.40;99.90;;;;;;5106831;27;20065;-82
2023/05/14 06:34:29;;;;;;;17.75;7.07;;;12.40;99.90;;;;;;5109363;27;20051;-83
2023/05/14 06:36:56;;;;;;;21.25;6.85;;;12.50;99.90;;;;;;5109946;27;20043;-85
2023/05/14 06:39:23;;;;;;;24.85;7.82;;;12.50;99.90;;;;;;5093402;27;20400;-84
2023/05/14 06:41:49;;;;;;;19.27;6.78;;;12.50;99.90;;;;;;5110011;27;20503;-83
2023/05/14 06:44:16;;;;;;;13.20;6.65;;;12.60;99.90;;;;;;5116563;27;20674;-83
2023/05/14 06:46:41;;;;;;;14.90;7.20;;;12.60;99.90;;;;;;5093000;27;20046;-82
2023/05/14 06:49:07;;;;;;;19.08;7.30;;;12.60;99.90;;;;;;5110275;27;20445;-83
2023/05/14 06:51:33;;;;;;;21.98;7.32;;;12.70;99.90;;;;;;5108886;27;20050;-82
2023/05/14 06:53:58;;;;;;;17.63;7.07;;;12.70;99.90;;;;;;5110848;27;20126;-83
2023/05/14 06:56:24;;;;;;;19.25;6.80;;;12.70;99.90;;;;;;5097304;27;20031;-83
2023/05/14 06:58:50;;;;;;;22.17;7.97;;;12.70;99.90;;;;;;5093165;27;20099;-83
2023/05/14 07:01:16;;;;;;;19.40;7.43;;;12.70;99.90;;;;;;5081572;27;20046;-81
2023/05/14 07:03:42;;;;;;;16.92;7.05;;;12.80;99.90;;;;;;5095774;27;20404;-83
2023/05/14 07:06:07;;;;;;;15.95;7.00;;;12.80;99.90;;;;;;5109820;27;20042;-81
2023/05/14 07:08:33;;;;;;;14.23;7.13;;;12.80;99.90;;;;;;5090040;28;20118;-82
2023/05/14 07:10:59;;;;;;;19.25;7.70;;;12.80;99.90;;;;;;5091154;28;20124;-82
2023/05/14 07:13:25;;;;;;;14.77;7.13;;;12.90;99.90;;;;;;5103722;27;20122;-82
2023/05/14 07:15:51;;;;;;;16.73;7.05;;;12.90;99.90;;;;;;5111112;27;20043;-80
2023/05/14 07:18:17;;;;;;;15.95;7.38;;;12.90;99.90;;;;;;5094043;27;20049;-82
2023/05/14 07:20:43;;;;;;;18.08;8.13;;;13.00;99.90;;;;;;5109419;27;20051;-82
2023/05/14 07:23:08;;;;;;;21.27;7.95;;;13.10;99.90;;;;;;5107404;27;20381;-82
2023/05/14 07:25:37;;;;;;;19.30;7.25;;;13.20;99.90;;;;;;5086409;27;20039;-81
2023/05/14 07:28:03;;;;;;;17.55;7.25;;;13.30;99.90;;;;;;5110305;27;20716;-81
2023/05/14 07:30:28;;;;;;;19.90;7.13;;;13.40;99.90;;;;;;5094787;27;20055;-82
2023/05/14 07:32:54;;;;;;;15.43;6.82;;;13.50;99.90;;;;;;5112085;27;20035;-82
2023/05/14 07:35:20;;;;;;;19.20;7.22;;;13.60;99.90;;;;;;5110861;27;20662;-82
2023/05/14 07:37:46;;;;;;;17.85;7.85;;;13.70;99.90;;;;;;5129498;27;20074;-82
2023/05/14 07:40:14;;;;;;;19.98;7.38;;;13.80;99.90;;;;;;5109917;27;20039;-83
2023/05/14 07:42:40;;;;;;;20.58;7.68;;;14.00;99.90;;;;;;5127404;27;20565;-82
2023/05/14 07:45:06;;;;;;;20.27;7.15;;;14.10;99.90;;;;;;5092736;27;20039;-83
2023/05/14 07:47:33;;;;;;;23.13;6.88;;;14.30;99.90;;;;;;5108531;27;20416;-84
2023/05/14 07:49:58;;;;;;;19.42;6.60;;;14.40;99.90;;;;;;5107397;27;20062;-83
2023/05/14 07:52:24;;;;;;;20.45;6.55;;;14.40;99.90;;;;;;5106671;27;20049;-82
2023/05/14 07:54:51;;;;;;;19.98;6.18;;;14.50;99.90;;;;;;5090272;27;20086;-84
2023/05/14 07:57:17;;;;;;;19.15;6.07;;;14.50;99.90;;;;;;5088784;27;20075;-84
2023/05/14 07:59:43;;;;;;;16.35;5.60;;;14.60;99.90;;;;;;5106873;27;20051;-83
2023/05/14 08:02:11;;;;;;;17.70;6.97;;;14.90;99.90;;;;;;5104964;27;20400;-82
2023/05/14 08:04:38;;;;;;;16.98;6.38;;;14.70;99.90;;;;;;5107175;27;20043;-78
2023/05/14 08:07:06;;;;;;;16.65;6.32;;;14.70;99.90;;;;;;5125761;27;20049;-79
2023/05/14 08:09:31;;;;;;;16.95;6.95;;;14.80;99.90;;;;;;5126084;27;20416;-81
2023/05/14 08:11:57;;;;;;;20.48;7.30;;;14.80;99.90;;;;;;5109307;28;20058;-83
2023/05/14 08:14:23;;;;;;;17.70;7.25;;;14.80;99.90;;;;;;5099752;27;20046;-82
2023/05/14 08:16:48;;;;;;;19.80;7.28;;;14.80;99.90;;;;;;5128307;27;20031;-84
2023/05/14 08:19:15;;;;;;;18.00;7.20;;;14.80;99.90;;;;;;5128215;27;20704;-81
2023/05/14 08:21:54;;;;;;;19.60;6.43;;;14.80;99.90;;;;;;5113991;27;20107;-81
2023/05/14 08:24:20;;;;;;;17.60;6.85;;;14.80;99.90;;;;;;5132930;27;20039;-82
2023/05/14 08:26:46;;;;;;;26.80;7.25;;;14.90;99.90;;;;;;5089134;22;20053;-82
2023/05/14 08:29:11;;;;;;;15.80;6.22;;;14.80;99.90;;;;;;5044104;28;20069;-81
2023/05/14 08:31:37;;;;;;;17.73;7.72;;;14.80;99.90;;;;;;5029813;28;20549;-80
2023/05/14 08:34:03;;;;;;;12.95;6.07;;;14.90;99.90;;;;;;5047589;28;20037;-82
2023/05/14 08:36:29;;;;;;;20.30;7.15;;;14.90;99.90;;;;;;5053493;28;20429;-80
2023/05/14 08:38:54;;;;;;;14.52;6.13;;;14.90;99.90;;;;;;5034482;28;20528;-81
2023/05/14 08:41:20;;;;;;;21.02;6.28;;;15.10;99.90;;;;;;5033607;28;20041;-82
2023/05/14 08:44:11;;;;;;;21.63;7.03;;;15.00;99.90;;;;;;5034960;28;20048;-81
2023/05/14 08:46:38;;;;;;;18.73;6.90;;;15.10;99.90;;;;;;5032457;28;20057;-81
2023/05/14 08:49:16;;;;;;;26.08;7.53;;;15.20;99.90;;;;;;5030855;28;20509;-81
2023/05/14 08:51:45;;;;;;;20.77;6.00;;;15.20;99.90;;;;;;5016593;28;20404;-81
2023/05/14 08:54:15;;;;;;;20.38;6.80;;;15.20;99.90;;;;;;5023788;28;20072;-80
2023/05/14 08:56:44;;;;;;;18.92;6.60;;;15.20;99.90;;;;;;5029927;28;20110;-82
2023/05/14 08:59:10;;;;;;;17.58;5.93;;;15.30;99.90;;;;;;5037813;28;20394;-81
2023/05/14 09:01:37;;;;;;;15.80;5.90;;;15.40;99.90;;;;;;5036281;28;20107;-80
2023/05/14 09:04:07;;;;;;;13.05;5.35;;;15.50;99.90;;;;;;5020396;28;20049;-81
2023/05/14 09:06:36;;;;;;;16.13;5.80;;;15.60;99.90;;;;;;5037866;28;20398;-80
2023/05/14 09:09:05;;;;;;;18.15;5.65;;;15.70;99.90;;;;;;5040040;28;20044;-81
2023/05/14 09:11:31;;;;;;;17.67;5.65;;;15.80;99.90;;;;;;5050485;28;20045;-83
2023/05/14 09:13:57;;;;;;;18.70;5.90;;;15.80;99.90;;;;;;5030131;28;20966;-81
2023/05/14 09:16:24;;;;;;;13.05;5.43;;;15.80;99.90;;;;;;5058206;28;20049;-80
2023/05/14 09:18:50;;;;;;;15.35;5.63;;;15.80;99.90;;;;;;5037387;28;20052;-79
2023/05/14 09:21:17;;;;;;;20.98;6.30;;;15.70;99.90;;;;;;5040737;28;20040;-84
2023/05/14 09:23:44;;;;;;;16.00;5.80;;;15.80;99.90;;;;;;5031796;28;20056;-81
2023/05/14 09:26:10;;;;;;;13.48;5.78;;;15.80;99.90;;;;;;5047504;28;20060;-82
2023/05/14 09:28:43;;;;;;;16.00;6.07;;;15.80;99.90;;;;;;5045326;28;20110;-80
2023/05/14 09:31:09;;;;;;;13.98;6.03;;;15.90;99.90;;;;;;5044244;28;20048;-82
2023/05/14 09:33:35;;;;;;;13.00;5.70;;;15.90;99.90;;;;;;5063168;28;20033;-82
2023/05/14 09:36:01;;;;;;;14.70;5.47;;;16.00;99.90;;;;;;5024893;28;20120;-81
2023/05/14 09:38:31;;;;;;;14.25;5.45;;;16.10;99.90;;;;;;5026390;28;20120;-82
2023/05/14 09:40:58;;;;;;;12.88;5.65;;;16.20;99.90;;;;;;5046953;28;20490;-80
2023/05/14 09:43:24;;;;;;;15.57;6.05;;;16.20;99.90;;;;;;5048280;28;20091;-81
2023/05/14 09:45:54;;;;;;;15.75;5.95;;;16.30;99.90;;;;;;5029047;28;20123;-82
2023/05/14 09:48:21;;;;;;;19.77;6.25;;;16.40;99.90;;;;;;5039305;28;20516;-82
2023/05/14 09:50:46;;;;;;;14.43;6.32;;;16.40;99.90;;;;;;5022135;28;20048;-80
2023/05/14 09:53:13;;;;;;;20.67;6.32;;;16.50;99.90;;;;;;5038326;28;20445;-82
2023/05/14 09:55:39;;;;;;;19.88;6.20;;;16.50;99.90;;;;;;5029723;28;20679;-81
2023/05/14 09:58:07;;;;;;;14.38;5.95;;;16.60;99.90;;;;;;5035883;28;20541;-81
2023/05/14 10:00:33;;;;;;;14.93;6.05;;;16.70;99.90;;;;;;5034989;28;20045;-81
2023/05/14 10:03:05;;;;;;;20.77;6.32;;;16.80;99.90;;;;;;5034823;28;20049;-81
2023/05/14 10:05:40;;;;;;;17.30;6.15;;;16.90;99.90;;;;;;5037339;28;20042;-80
2023/05/14 10:08:25;;;;;;;13.27;6.55;;;16.90;99.90;;;;;;5021063;28;20045;-81
2023/05/14 10:10:54;;;;;;;16.30;6.15;;;16.90;99.90;;;;;;5044476;28;20045;-81
2023/05/14 10:13:22;;;;;;;13.63;5.78;;;17.00;99.90;;;;;;5047193;28;20029;-81
2023/05/14 10:16:17;;;;;;;17.00;6.35;;;17.00;99.90;;;;;;5046142;28;20049;-82
2023/05/14 10:18:50;;;;;;;16.05;5.85;;;17.00;99.90;;;;;;5049973;28;20103;-80
2023/05/14 10:21:20;;;;;;;18.90;6.35;;;17.10;99.90;;;;;;5039047;28;20048;-80
2023/05/14 10:23:47;;;;;;;13.32;6.30;;;17.10;99.90;;;;;;5030648;28;20040;-82
2023/05/14 10:26:14;;;;;;;15.27;6.55;;;17.10;99.90;;;;;;5021692;28;20052;-81
2023/05/14 10:28:40;;;;;;;15.70;6.90;;;17.20;99.90;;;;;;5054973;28;20048;-80
2023/05/14 10:31:08;;;;;;;16.40;6.40;;;17.30;99.90;;;;;;5059218;28;20408;-81
2023/05/14 10:33:55;;;;;;;18.45;6.10;;;17.40;99.90;;;;;;5043095;28;20100;-81
2023/05/14 10:36:21;;;;;;;17.63;6.53;;;17.40;99.90;;;;;;5023999;28;20041;-81
2023/05/14 10:38:55;;;;;;;19.50;7.57;;;17.50;99.90;;;;;;5029458;28;20045;-81
2023/05/14 10:41:24;;;;;;;12.88;6.07;;;17.60;99.90;;;;;;5048274;28;20041;-80
2023/05/14 10:43:50;;;;;;;9.63;5.40;;;17.60;99.90;;;;;;5031049;28;20498;-81
2023/05/14 10:46:16;;;;;;;15.10;5.97;;;17.70;99.90;;;;;;5047153;28;20053;-81
2023/05/14 10:48:43;;;;;;;12.30;6.10;;;17.80;99.90;;;;;;5036521;28;20115;-80
2023/05/14 10:51:15;;;;;;;15.70;5.68;;;17.90;99.90;;;;;;5030465;28;20041;-81
2023/05/14 10:53:42;;;;;;;14.93;5.70;;;17.90;99.90;;;;;;5044782;28;20178;-81
2023/05/14 10:56:10;;;;;;;13.05;6.30;;;17.90;99.90;;;;;;5030155;28;20482;-80
2023/05/14 10:58:37;;;;;;;12.20;5.78;;;17.90;99.90;;;;;;5047270;28;20052;-81
2023/05/14 11:01:04;;;;;;;16.52;5.80;;;17.90;99.90;;;;;;5050410;28;20501;-81
2023/05/14 11:03:31;;;;;;;16.17;6.10;;;17.90;99.90;;;;;;5044507;28;20048;-83
2023/05/14 11:05:59;;;;;;;13.50;6.50;;;17.90;99.90;;;;;;5026710;28;20126;-81
2023/05/14 11:08:26;;;;;;;12.40;6.32;;;17.90;99.90;;;;;;5061522;28;20120;-81
2023/05/14 11:10:54;;;;;;;13.68;6.28;;;17.90;99.90;;;;;;5045033;28;20041;-81
2023/05/14 11:13:20;;;;;;;11.90;6.13;;;18.00;99.90;;;;;;5029327;28;20132;-81
2023/05/14 11:15:47;;;;;;;17.10;6.43;;;18.00;99.90;;;;;;5045746;28;20052;-81
2023/05/14 11:18:13;;;;;;;12.55;6.40;;;18.10;99.90;;;;;;5048358;28;20048;-81
2023/05/14 11:20:39;;;;;;;12.77;6.20;;;18.10;99.90;;;;;;5031313;28;20473;-81
2023/05/14 11:23:08;;;;;;;13.82;6.55;;;18.20;99.90;;;;;;5046820;28;20653;-81
2023/05/14 11:25:33;;;;;;;14.45;6.20;;;18.20;99.90;;;;;;5029514;28;20456;-80
2023/05/14 11:27:59;;;;;;;11.32;6.03;;;18.30;99.90;;;;;;5045249;28;20053;-81
2023/05/14 11:30:25;;;;;;;15.32;6.97;;;18.30;99.90;;;;;;5037588;28;20048;-82
2023/05/14 11:32:51;;;;;;;16.65;6.57;;;18.30;99.90;;;;;;5036121;28;20533;-79
2023/05/14 11:35:17;;;;;;;15.68;6.35;;;18.40;99.90;;;;;;5043633;28;20041;-81
2023/05/14 11:37:49;;;;;;;10.25;5.18;;;18.50;99.90;;;;;;5047140;28;20453;-81
2023/05/14 11:40:15;;;;;;;14.25;6.32;;;18.50;99.90;;;;;;5043419;28;20048;-81
2023/05/14 11:42:41;;;;;;;11.25;5.32;;;18.60;99.90;;;;;;5040437;28;20961;-81
2023/05/14 11:45:10;;;;;;;14.40;6.32;;;18.60;99.90;;;;;;5042225;28;20071;-81
2023/05/14 11:47:36;;;;;;;14.10;5.38;;;18.70;99.90;;;;;;5024872;28;20091;-82
2023/05/14 11:50:02;;;;;;;13.50;5.60;;;18.70;99.90;;;;;;5059566;28;20077;-81
2023/05/14 11:52:28;;;;;;;11.30;4.47;;;18.80;99.90;;;;;;5029938;28;20099;-80
2023/05/14 11:54:54;;;;;;;7.93;4.25;;;18.80;99.90;;;;;;5027851;28;20041;-84
2023/05/14 11:57:21;;;;;;;11.10;4.85;;;18.90;99.90;;;;;;5046559;28;20036;-83
2023/05/14 11:59:48;;;;;;;17.25;4.68;;;18.90;99.90;;;;;;5061079;28;20049;-83
2023/05/14 12:02:16;;;;;;;12.80;4.20;;;18.90;99.90;;;;;;5044467;28;20071;-83
2023/05/14 12:04:43;;;;;;;11.77;4.03;;;19.00;99.90;;;;;;5028808;28;20064;-83
2023/05/14 12:07:11;;;;;;;11.07;4.03;;;19.00;99.90;;;;;;5028036;28;20055;-84
2023/05/14 12:09:47;;;;;;;14.15;4.68;;;19.10;99.90;;;;;;5049555;28;20048;-83
2023/05/14 12:12:14;;;;;;;10.85;3.88;;;19.10;99.90;;;;;;5046609;28;20114;-84
2023/05/14 12:14:42;;;;;;;12.27;4.95;;;19.10;99.90;;;;;;5029586;28;20048;-83
2023/05/14 12:17:15;;;;;;;10.77;4.95;;;19.20;99.90;;;;;;5049131;28;20126;-83
2023/05/14 12:19:41;;;;;;;10.15;4.50;;;19.30;99.90;;;;;;5048300;28;20045;-83
2023/05/14 12:22:09;;;;;;;10.23;4.10;;;19.40;99.90;;;;;;5031303;28;20083;-82
2023/05/14 12:24:35;;;;;;;14.35;5.38;;;19.30;99.90;;;;;;5030911;28;20552;-82
2023/05/14 12:27:01;;;;;;;9.38;4.40;;;19.40;99.90;;;;;;5039718;28;20053;-82
2023/05/14 12:29:27;;;;;;;14.43;4.75;;;19.40;99.90;;;;;;5040647;28;20041;-82
2023/05/14 12:31:56;;;;;;;11.38;4.60;;;19.40;99.90;;;;;;5042483;28;20051;-82
2023/05/14 12:34:21;;;;;;;9.73;4.70;;;19.40;99.90;;;;;;5033499;28;20128;-82
2023/05/14 12:36:49;;;;;;;11.35;4.72;;;19.50;99.90;;;;;;5034103;28;20035;-83
2023/05/14 12:39:16;;;;;;;8.75;3.95;;;19.40;99.90;;;;;;5039305;28;20132;-81
2023/05/14 12:41:42;;;;;;;11.20;3.92;;;19.40;99.90;;;;;;5045400;28;20037;-81
2023/05/14 12:44:08;;;;;;;13.68;5.13;;;19.50;99.90;;;;;;5046692;28;20044;-81
2023/05/14 12:46:37;;;;;;;8.85;4.30;;;19.50;99.90;;;;;;5041966;28;20063;-83
2023/05/14 12:49:06;;;;;;;9.20;4.45;;;19.60;99.90;;;;;;5053498;28;20125;-83
2023/05/14 12:51:32;;;;;;;14.00;4.30;;;19.60;99.90;;;;;;5043108;28;20148;-82